sensor_id;sensor_type;location;lat;lon;timestamp;temperature;humidity
12315;DHT22;23886;46.614;14.276;2022-07-23T00:01:39;20.60;99.90
12315;DHT22;23886;46.614;14.276;2022-07-23T00:04:07;20.60;99.90
12315;DHT22;23886;46.614;14.276;2022-07-23T00:06:34;20.50;99.90
12315;DHT22;23886;46.614;14.276;2022-07-23T00:09:03;20.60;99.90
12315;DHT22;23886;46.614;14.276;2022-07-23T00:11:30;20.50;99.90
12315;DHT22;23886;46.614;14.276;2022-07-23T00:13:57;20.40;99.90
12315;DHT22;23886;46.614;14.276;2022-07-23T00:16:24;20.30;99.90
12315;DHT22;23886;46.614;14.276;2022-07-23T00:18:51;20.20;99.90
12315;DHT22;23886;46.614;14.276;2022-07-23T00:21:18;20.20;99.90
12315;DHT22;23886;46.614;14.276;2022-07-23T00:23:45;20.00;99.90
12315;DHT22;23886;46.614;14.276;2022-07-23T00:26:13;20.20;99.90
12315;DHT22;23886;46.614;14.276;2022-07-23T00:28:40;20.10;99.90
12315;DHT22;23886;46.614;14.276;2022-07-23T00:31:07;20.20;99.90
12315;DHT22;23886;46.614;14.276;2022-07-23T00:33:34;20.30;99.90
12315;DHT22;23886;46.614;14.276;2022-07-23T00:36:02;20.30;99.90
12315;DHT22;23886;46.614;14.276;2022-07-23T00:38:29;20.20;99.90
12315;DHT22;23886;46.614;14.276;2022-07-23T00:40:56;20.10;99.90
12315;DHT22;23886;46.614;14.276;2022-07-23T00:43:24;20.00;99.90
12315;DHT22;23886;46.614;14.276;2022-07-23T00:45:52;20.10;99.90
12315;DHT22;23886;46.614;14.276;2022-07-23T00:48:19;19.90;99.90
12315;DHT22;23886;46.614;14.276;2022-07-23T00:50:46;19.70;99.90
12315;DHT22;23886;46.614;14.276;2022-07-23T00:53:13;19.60;99.90
12315;DHT22;23886;46.614;14.276;2022-07-23T00:55:40;19.60;99.90
12315;DHT22;23886;46.614;14.276;2022-07-23T00:58:07;19.70;99.90
12315;DHT22;23886;46.614;14.276;2022-07-23T01:00:36;19.60;99.90
12315;DHT22;23886;46.614;14.276;2022-07-23T01:03:03;19.60;99.90
12315;DHT22;23886;46.614;14.276;2022-07-23T01:05:30;19.70;99.90
12315;DHT22;23886;46.614;14.276;2022-07-23T01:07:58;19.70;99.90
12315;DHT22;23886;46.614;14.276;2022-07-23T01:10:25;19.80;99.90
12315;DHT22;23886;46.614;14.276;2022-07-23T01:12:58;19.90;99.90
12315;DHT22;23886;46.614;14.276;2022-07-23T01:15:25;20.10;99.90
12315;DHT22;23886;46.614;14.276;2022-07-23T01:17:54;19.80;99.90
12315;DHT22;23886;46.614;14.276;2022-07-23T01:20:21;20.00;99.90
12315;DHT22;23886;46.614;14.276;2022-07-23T01:22:50;20.00;99.90
12315;DHT22;23886;46.614;14.276;2022-07-23T01:25:17;20.00;99.90
12315;DHT22;23886;46.614;14.276;2022-07-23T01:27:44;20.00;99.90
12315;DHT22;23886;46.614;14.276;2022-07-23T01:30:12;20.10;99.90
12315;DHT22;23886;46.614;14.276;2022-07-23T01:32:40;20.00;99.90
12315;DHT22;23886;46.614;14.276;2022-07-23T01:35:08;19.90;99.90
12315;DHT22;23886;46.614;14.276;2022-07-23T01:37:36;19.90;99.90
12315;DHT22;23886;46.614;14.276;2022-07-23T01:40:06;19.90;99.90
12315;DHT22;23886;46.614;14.276;2022-07-23T01:42:33;19.90;99.90
12315;DHT22;23886;46.614;14.276;2022-07-23T01:45:02;19.60;99.90
12315;DHT22;23886;46.614;14.276;2022-07-23T01:47:30;19.50;99.90
12315;DHT22;23886;46.614;14.276;2022-07-23T01:49:57;19.50;99.90
12315;DHT22;23886;46.614;14.276;2022-07-23T01:52:24;19.30;99.90
12315;DHT22;23886;46.614;14.276;2022-07-23T01:54:51;19.20;99.90
12315;DHT22;23886;46.614;14.276;2022-07-23T01:57:20;19.30;99.90
12315;DHT22;23886;46.614;14.276;2022-07-23T01:59:47;19.20;99.90
12315;DHT22;23886;46.614;14.276;2022-07-23T02:02:14;19.30;99.90
12315;DHT22;23886;46.614;14.276;2022-07-23T02:04:41;19.30;99.90
12315;DHT22;23886;46.614;14.276;2022-07-23T02:07:08;19.20;99.90
12315;DHT22;23886;46.614;14.276;2022-07-23T02:09:35;19.30;99.90
12315;DHT22;23886;46.614;14.276;2022-07-23T02:12:02;19.20;99.90
12315;DHT22;23886;46.614;14.276;2022-07-23T02:14:31;19.30;99.90
12315;DHT22;23886;46.614;14.276;2022-07-23T02:16:58;19.30;99.90
12315;DHT22;23886;46.614;14.276;2022-07-23T02:19:25;19.10;99.90
12315;DHT22;23886;46.614;14.276;2022-07-23T02:21:52;19.10;99.90
12315;DHT22;23886;46.614;14.276;2022-07-23T02:24:20;19.10;99.90
12315;DHT22;23886;46.614;14.276;2022-07-23T02:26:47;19.00;99.90
12315;DHT22;23886;46.614;14.276;2022-07-23T02:29:14;18.90;99.90
12315;DHT22;23886;46.614;14.276;2022-07-23T02:31:42;19.00;99.90
12315;DHT22;23886;46.614;14.276;2022-07-23T02:34:09;19.00;99.90
12315;DHT22;23886;46.614;14.276;2022-07-23T02:36:37;19.00;99.90
12315;DHT22;23886;46.614;14.276;2022-07-23T02:39:05;19.00;99.90
12315;DHT22;23886;46.614;14.276;2022-07-23T02:41:32;19.00;99.90
12315;DHT22;23886;46.614;14.276;2022-07-23T02:43:59;19.00;99.90
12315;DHT22;23886;46.614;14.276;2022-07-23T02:46:26;18.90;99.90
12315;DHT22;23886;46.614;14.276;2022-07-23T02:48:54;18.80;99.90
12315;DHT22;23886;46.614;14.276;2022-07-23T02:51:21;18.70;99.90
12315;DHT22;23886;46.614;14.276;2022-07-23T02:53:48;18.70;99.90
12315;DHT22;23886;46.614;14.276;2022-07-23T02:56:15;18.70;99.90
12315;DHT22;23886;46.614;14.276;2022-07-23T02:58:42;18.70;99.90
12315;DHT22;23886;46.614;14.276;2022-07-23T03:01:09;18.70;99.90
12315;DHT22;23886;46.614;14.276;2022-07-23T03:03:36;18.80;99.90
12315;DHT22;23886;46.614;14.276;2022-07-23T03:06:05;18.80;99.90
12315;DHT22;23886;46.614;14.276;2022-07-23T03:08:32;18.80;99.90
12315;DHT22;23886;46.614;14.276;2022-07-23T03:10:59;18.70;99.90
12315;DHT22;23886;46.614;14.276;2022-07-23T03:13:26;18.70;99.90
12315;DHT22;23886;46.614;14.276;2022-07-23T03:15:55;18.60;99.90
12315;DHT22;23886;46.614;14.276;2022-07-23T03:18:22;18.50;99.90
12315;DHT22;23886;46.614;14.276;2022-07-23T03:20:49;18.50;99.90
12315;DHT22;23886;46.614;14.276;2022-07-23T03:23:17;18.60;99.90
12315;DHT22;23886;46.614;14.276;2022-07-23T03:25:44;18.50;99.90
12315;DHT22;23886;46.614;14.276;2022-07-23T03:28:12;18.40;99.90
12315;DHT22;23886;46.614;14.276;2022-07-23T03:30:39;18.40;99.90
12315;DHT22;23886;46.614;14.276;2022-07-23T03:33:06;18.20;99.90
12315;DHT22;23886;46.614;14.276;2022-07-23T03:35:33;18.20;99.90
12315;DHT22;23886;46.614;14.276;2022-07-23T03:38:00;18.30;99.90
12315;DHT22;23886;46.614;14.276;2022-07-23T03:40:29;18.40;99.90
12315;DHT22;23886;46.614;14.276;2022-07-23T03:42:56;18.40;99.90
12315;DHT22;23886;46.614;14.276;2022-07-23T03:45:23;18.40;99.90
12315;DHT22;23886;46.614;14.276;2022-07-23T03:47:50;18.50;99.90
12315;DHT22;23886;46.614;14.276;2022-07-23T03:50:17;18.40;99.90
12315;DHT22;23886;46.614;14.276;2022-07-23T03:52:44;18.30;99.90
12315;DHT22;23886;46.614;14.276;2022-07-23T03:55:11;18.30;99.90
12315;DHT22;23886;46.614;14.276;2022-07-23T03:57:40;18.40;99.90
12315;DHT22;23886;46.614;14.276;2022-07-23T04:00:08;18.50;99.90
12315;DHT22;23886;46.614;14.276;2022-07-23T04:02:35;18.60;99.90
12315;DHT22;23886;46.614;14.276;2022-07-23T04:05:03;18.50;99.90
12315;DHT22;23886;46.614;14.276;2022-07-23T04:07:30;18.60;99.90
12315;DHT22;23886;46.614;14.276;2022-07-23T04:09:58;18.50;99.90
12315;DHT22;23886;46.614;14.276;2022-07-23T04:12:25;18.70;99.90
12315;DHT22;23886;46.614;14.276;2022-07-23T04:14:53;18.80;99.90
12315;DHT22;23886;46.614;14.276;2022-07-23T04:17:20;18.80;99.90
12315;DHT22;23886;46.614;14.276;2022-07-23T04:19:47;18.90;99.90
12315;DHT22;23886;46.614;14.276;2022-07-23T04:22:14;19.10;99.90
12315;DHT22;23886;46.614;14.276;2022-07-23T04:24:41;19.10;99.90
12315;DHT22;23886;46.614;14.276;2022-07-23T04:27:08;19.00;99.90
12315;DHT22;23886;46.614;14.276;2022-07-23T04:29:35;19.10;99.90
12315;DHT22;23886;46.614;14.276;2022-07-23T04:32:04;19.10;99.90
12315;DHT22;23886;46.614;14.276;2022-07-23T04:34:31;19.20;99.90
12315;DHT22;23886;46.614;14.276;2022-07-23T04:36:58;19.30;99.90
12315;DHT22;23886;46.614;14.276;2022-07-23T04:39:25;19.40;99.90
12315;DHT22;23886;46.614;14.276;2022-07-23T04:41:52;19.60;99.90
12315;DHT22;23886;46.614;14.276;2022-07-23T04:44:19;19.60;99.90
12315;DHT22;23886;46.614;14.276;2022-07-23T04:46:47;19.70;99.90
12315;DHT22;23886;46.614;14.276;2022-07-23T04:49:15;19.70;99.90
12315;DHT22;23886;46.614;14.276;2022-07-23T04:51:42;19.80;99.90
12315;DHT22;23886;46.614;14.276;2022-07-23T04:54:09;19.90;99.90
12315;DHT22;23886;46.614;14.276;2022-07-23T04:56:36;20.10;99.90
12315;DHT22;23886;46.614;14.276;2022-07-23T04:59:03;20.20;99.90
12315;DHT22;23886;46.614;14.276;2022-07-23T05:01:30;20.30;99.90
12315;DHT22;23886;46.614;14.276;2022-07-23T05:03:57;20.40;99.90
12315;DHT22;23886;46.614;14.276;2022-07-23T05:06:25;20.60;99.90
12315;DHT22;23886;46.614;14.276;2022-07-23T05:08:52;20.60;99.90
12315;DHT22;23886;46.614;14.276;2022-07-23T05:11:21;20.50;99.90
12315;DHT22;23886;46.614;14.276;2022-07-23T05:13:48;20.40;99.90
12315;DHT22;23886;46.614;14.276;2022-07-23T05:16:15;20.40;99.90
12315;DHT22;23886;46.614;14.276;2022-07-23T05:18:42;20.40;99.90
12315;DHT22;23886;46.614;14.276;2022-07-23T05:21:09;20.50;99.90
12315;DHT22;23886;46.614;14.276;2022-07-23T05:23:37;20.40;99.90
12315;DHT22;23886;46.614;14.276;2022-07-23T05:26:04;20.40;99.90
12315;DHT22;23886;46.614;14.276;2022-07-23T05:28:31;20.50;99.90
12315;DHT22;23886;46.614;14.276;2022-07-23T05:30:58;20.70;99.90
12315;DHT22;23886;46.614;14.276;2022-07-23T05:33:25;20.80;99.90
12315;DHT22;23886;46.614;14.276;2022-07-23T05:35:52;20.90;99.90
12315;DHT22;23886;46.614;14.276;2022-07-23T05:38:19;21.00;99.90
12315;DHT22;23886;46.614;14.276;2022-07-23T05:40:48;21.10;99.90
12315;DHT22;23886;46.614;14.276;2022-07-23T05:43:14;21.20;99.90
12315;DHT22;23886;46.614;14.276;2022-07-23T05:45:41;21.40;99.90
12315;DHT22;23886;46.614;14.276;2022-07-23T05:48:08;21.60;99.90
12315;DHT22;23886;46.614;14.276;2022-07-23T05:50:35;21.70;99.90
12315;DHT22;23886;46.614;14.276;2022-07-23T05:53:02;21.80;99.90
12315;DHT22;23886;46.614;14.276;2022-07-23T05:55:29;21.90;99.90
12315;DHT22;23886;46.614;14.276;2022-07-23T05:57:59;22.00;99.90
12315;DHT22;23886;46.614;14.276;2022-07-23T06:00:26;22.00;99.90
12315;DHT22;23886;46.614;14.276;2022-07-23T06:02:54;22.10;99.90
12315;DHT22;23886;46.614;14.276;2022-07-23T06:05:21;22.10;99.90
12315;DHT22;23886;46.614;14.276;2022-07-23T06:07:48;22.20;99.90
12315;DHT22;23886;46.614;14.276;2022-07-23T06:10:16;22.40;99.90
12315;DHT22;23886;46.614;14.276;2022-07-23T06:12:42;22.40;99.90
12315;DHT22;23886;46.614;14.276;2022-07-23T06:15:11;22.70;99.90
12315;DHT22;23886;46.614;14.276;2022-07-23T06:17:39;22.70;99.90
12315;DHT22;23886;46.614;14.276;2022-07-23T06:20:07;22.90;99.90
12315;DHT22;23886;46.614;14.276;2022-07-23T06:22:34;22.90;99.90
12315;DHT22;23886;46.614;14.276;2022-07-23T06:25:02;22.90;99.90
12315;DHT22;23886;46.614;14.276;2022-07-23T06:27:29;23.10;99.90
12315;DHT22;23886;46.614;14.276;2022-07-23T06:29:56;23.20;99.90
12315;DHT22;23886;46.614;14.276;2022-07-23T06:32:24;23.20;99.90
12315;DHT22;23886;46.614;14.276;2022-07-23T06:34:51;23.30;99.90
12315;DHT22;23886;46.614;14.276;2022-07-23T06:37:18;23.50;99.90
12315;DHT22;23886;46.614;14.276;2022-07-23T06:39:45;23.60;99.90
12315;DHT22;23886;46.614;14.276;2022-07-23T06:42:12;23.60;99.90
12315;DHT22;23886;46.614;14.276;2022-07-23T06:44:40;23.70;99.90
12315;DHT22;23886;46.614;14.276;2022-07-23T06:47:07;23.80;99.90
12315;DHT22;23886;46.614;14.276;2022-07-23T06:49:36;23.90;99.90
12315;DHT22;23886;46.614;14.276;2022-07-23T06:52:03;23.90;99.90
12315;DHT22;23886;46.614;14.276;2022-07-23T06:54:30;24.10;99.90
12315;DHT22;23886;46.614;14.276;2022-07-23T06:56:57;24.20;99.90
12315;DHT22;23886;46.614;14.276;2022-07-23T06:59:24;24.10;99.90
12315;DHT22;23886;46.614;14.276;2022-07-23T07:01:51;24.10;99.90
12315;DHT22;23886;46.614;14.276;2022-07-23T07:04:18;24.10;99.90
12315;DHT22;23886;46.614;14.276;2022-07-23T07:06:46;24.20;99.90
12315;DHT22;23886;46.614;14.276;2022-07-23T07:09:13;24.20;99.90
12315;DHT22;23886;46.614;14.276;2022-07-23T07:11:40;24.20;99.90
12315;DHT22;23886;46.614;14.276;2022-07-23T07:14:07;24.10;99.90
12315;DHT22;23886;46.614;14.276;2022-07-23T07:16:34;24.10;99.90
12315;DHT22;23886;46.614;14.276;2022-07-23T07:19:01;24.10;99.90
12315;DHT22;23886;46.614;14.276;2022-07-23T07:21:28;24.10;99.90
12315;DHT22;23886;46.614;14.276;2022-07-23T07:23:56;24.20;99.90
12315;DHT22;23886;46.614;14.276;2022-07-23T07:26:24;24.30;99.90
12315;DHT22;23886;46.614;14.276;2022-07-23T07:28:51;24.30;99.90
12315;DHT22;23886;46.614;14.276;2022-07-23T07:31:18;24.50;99.90
12315;DHT22;23886;46.614;14.276;2022-07-23T07:33:45;24.60;99.90
12315;DHT22;23886;46.614;14.276;2022-07-23T07:36:12;24.80;99.90
12315;DHT22;23886;46.614;14.276;2022-07-23T07:38:39;24.90;99.90
12315;DHT22;23886;46.614;14.276;2022-07-23T07:41:07;25.20;99.90
12315;DHT22;23886;46.614;14.276;2022-07-23T07:43:36;25.60;99.70
12315;DHT22;23886;46.614;14.276;2022-07-23T07:46:03;25.90;99.90
12315;DHT22;23886;46.614;14.276;2022-07-23T07:48:30;25.90;98.80
12315;DHT22;23886;46.614;14.276;2022-07-23T07:50:57;26.20;99.80
12315;DHT22;23886;46.614;14.276;2022-07-23T07:53:23;26.30;99.00
12315;DHT22;23886;46.614;14.276;2022-07-23T07:55:50;26.20;98.80
12315;DHT22;23886;46.614;14.276;2022-07-23T07:58:19;26.30;97.50
12315;DHT22;23886;46.614;14.276;2022-07-23T08:00:46;26.50;97.20
12315;DHT22;23886;46.614;14.276;2022-07-23T08:03:13;26.60;96.70
12315;DHT22;23886;46.614;14.276;2022-07-23T08:05:40;26.70;96.40
12315;DHT22;23886;46.614;14.276;2022-07-23T08:08:07;26.80;95.50
12315;DHT22;23886;46.614;14.276;2022-07-23T08:10:35;26.50;96.00
12315;DHT22;23886;46.614;14.276;2022-07-23T08:13:02;26.40;95.60
12315;DHT22;23886;46.614;14.276;2022-07-23T08:15:30;26.50;95.60
12315;DHT22;23886;46.614;14.276;2022-07-23T08:17:58;26.40;95.40
12315;DHT22;23886;46.614;14.276;2022-07-23T08:20:26;26.50;95.00
12315;DHT22;23886;46.614;14.276;2022-07-23T08:22:54;26.50;96.10
12315;DHT22;23886;46.614;14.276;2022-07-23T08:25:23;26.70;95.20
12315;DHT22;23886;46.614;14.276;2022-07-23T08:27:51;26.80;93.90
12315;DHT22;23886;46.614;14.276;2022-07-23T08:30:18;26.70;94.90
12315;DHT22;23886;46.614;14.276;2022-07-23T08:32:52;26.50;96.40
12315;DHT22;23886;46.614;14.276;2022-07-23T08:35:22;26.50;95.10
12315;DHT22;23886;46.614;14.276;2022-07-23T08:37:50;26.50;95.70
12315;DHT22;23886;46.614;14.276;2022-07-23T08:40:17;26.50;95.00
12315;DHT22;23886;46.614;14.276;2022-07-23T08:42:46;26.50;96.00
12315;DHT22;23886;46.614;14.276;2022-07-23T08:45:17;26.50;94.80
12315;DHT22;23886;46.614;14.276;2022-07-23T08:47:50;26.60;95.20
12315;DHT22;23886;46.614;14.276;2022-07-23T08:50:17;26.70;94.80
12315;DHT22;23886;46.614;14.276;2022-07-23T08:52:44;26.70;95.20
12315;DHT22;23886;46.614;14.276;2022-07-23T08:55:12;26.60;96.00
12315;DHT22;23886;46.614;14.276;2022-07-23T08:57:39;26.50;94.40
12315;DHT22;23886;46.614;14.276;2022-07-23T09:00:07;26.30;93.30
12315;DHT22;23886;46.614;14.276;2022-07-23T09:02:39;26.10;93.60
12315;DHT22;23886;46.614;14.276;2022-07-23T09:05:09;26.10;94.40
12315;DHT22;23886;46.614;14.276;2022-07-23T09:07:37;26.40;93.80
12315;DHT22;23886;46.614;14.276;2022-07-23T09:10:07;26.40;94.20
12315;DHT22;23886;46.614;14.276;2022-07-23T09:12:35;26.50;94.60
12315;DHT22;23886;46.614;14.276;2022-07-23T09:15:07;26.80;93.80
12315;DHT22;23886;46.614;14.276;2022-07-23T09:17:39;27.00;93.40
12315;DHT22;23886;46.614;14.276;2022-07-23T09:20:12;27.10;93.30
12315;DHT22;23886;46.614;14.276;2022-07-23T09:22:40;27.20;93.20
12315;DHT22;23886;46.614;14.276;2022-07-23T09:25:12;26.90;93.80
12315;DHT22;23886;46.614;14.276;2022-07-23T09:27:51;26.90;94.40
12315;DHT22;23886;46.614;14.276;2022-07-23T09:30:20;26.90;94.80
12315;DHT22;23886;46.614;14.276;2022-07-23T09:33:07;27.20;94.00
12315;DHT22;23886;46.614;14.276;2022-07-23T09:35:48;27.60;93.10
12315;DHT22;23886;46.614;14.276;2022-07-23T09:38:16;27.70;93.20
12315;DHT22;23886;46.614;14.276;2022-07-23T09:40:44;27.80;93.30
12315;DHT22;23886;46.614;14.276;2022-07-23T09:43:11;27.90;93.60
12315;DHT22;23886;46.614;14.276;2022-07-23T09:45:38;28.20;92.30
12315;DHT22;23886;46.614;14.276;2022-07-23T09:48:13;28.40;92.30
12315;DHT22;23886;46.614;14.276;2022-07-23T09:50:41;28.60;90.20
12315;DHT22;23886;46.614;14.276;2022-07-23T09:53:09;28.70;87.80
12315;DHT22;23886;46.614;14.276;2022-07-23T09:55:37;29.00;90.40
12315;DHT22;23886;46.614;14.276;2022-07-23T09:58:05;29.40;90.20
12315;DHT22;23886;46.614;14.276;2022-07-23T10:00:34;29.60;88.30
12315;DHT22;23886;46.614;14.276;2022-07-23T10:03:01;29.50;86.70
12315;DHT22;23886;46.614;14.276;2022-07-23T10:05:30;29.50;85.50
12315;DHT22;23886;46.614;14.276;2022-07-23T10:07:58;29.20;88.00
12315;DHT22;23886;46.614;14.276;2022-07-23T10:10:28;29.10;87.20
12315;DHT22;23886;46.614;14.276;2022-07-23T10:12:56;29.40;87.10
12315;DHT22;23886;46.614;14.276;2022-07-23T10:15:52;29.70;85.40
12315;DHT22;23886;46.614;14.276;2022-07-23T10:18:20;29.70;86.50
12315;DHT22;23886;46.614;14.276;2022-07-23T10:20:47;29.60;87.10
12315;DHT22;23886;46.614;14.276;2022-07-23T10:23:20;29.50;87.00
12315;DHT22;23886;46.614;14.276;2022-07-23T10:25:58;29.40;85.90
12315;DHT22;23886;46.614;14.276;2022-07-23T10:28:46;29.70;86.60
12315;DHT22;23886;46.614;14.276;2022-07-23T10:31:25;30.30;87.00
12315;DHT22;23886;46.614;14.276;2022-07-23T10:33:59;30.40;81.80
12315;DHT22;23886;46.614;14.276;2022-07-23T10:36:42;30.50;85.70
12315;DHT22;23886;46.614;14.276;2022-07-23T10:39:18;30.20;84.10
12315;DHT22;23886;46.614;14.276;2022-07-23T10:41:47;30.00;83.60
12315;DHT22;23886;46.614;14.276;2022-07-23T10:44:17;30.10;82.70
12315;DHT22;23886;46.614;14.276;2022-07-23T10:46:56;30.00;81.00
12315;DHT22;23886;46.614;14.276;2022-07-23T10:49:43;30.20;85.20
12315;DHT22;23886;46.614;14.276;2022-07-23T10:52:18;30.10;83.00
12315;DHT22;23886;46.614;14.276;2022-07-23T10:54:46;30.20;84.00
12315;DHT22;23886;46.614;14.276;2022-07-23T10:57:17;30.50;83.40
12315;DHT22;23886;46.614;14.276;2022-07-23T11:00:16;30.60;80.40
12315;DHT22;23886;46.614;14.276;2022-07-23T11:02:44;30.80;80.10
12315;DHT22;23886;46.614;14.276;2022-07-23T11:05:14;30.90;77.20
12315;DHT22;23886;46.614;14.276;2022-07-23T11:08:11;30.80;78.60
12315;DHT22;23886;46.614;14.276;2022-07-23T11:10:41;30.60;78.10
12315;DHT22;23886;46.614;14.276;2022-07-23T11:16:25;30.50;76.90
12315;DHT22;23886;46.614;14.276;2022-07-23T11:18:57;30.70;78.80
12315;DHT22;23886;46.614;14.276;2022-07-23T11:21:41;30.80;79.80
12315;DHT22;23886;46.614;14.276;2022-07-23T11:24:10;31.30;80.20
12315;DHT22;23886;46.614;14.276;2022-07-23T11:26:44;31.50;76.50
12315;DHT22;23886;46.614;14.276;2022-07-23T11:29:48;31.90;76.60
12315;DHT22;23886;46.614;14.276;2022-07-23T11:32:32;32.30;75.60
12315;DHT22;23886;46.614;14.276;2022-07-23T11:35:01;31.90;75.40
12315;DHT22;23886;46.614;14.276;2022-07-23T11:37:34;31.70;77.10
12315;DHT22;23886;46.614;14.276;2022-07-23T11:40:05;32.20;74.40
12315;DHT22;23886;46.614;14.276;2022-07-23T11:42:34;32.60;75.00
12315;DHT22;23886;46.614;14.276;2022-07-23T11:45:01;32.60;71.20
12315;DHT22;23886;46.614;14.276;2022-07-23T11:47:30;32.90;69.80
12315;DHT22;23886;46.614;14.276;2022-07-23T11:49:59;33.10;71.70
12315;DHT22;23886;46.614;14.276;2022-07-23T11:52:27;33.50;70.90
12315;DHT22;23886;46.614;14.276;2022-07-23T11:54:55;33.80;69.10
12315;DHT22;23886;46.614;14.276;2022-07-23T11:57:28;33.50;70.60
12315;DHT22;23886;46.614;14.276;2022-07-23T11:59:57;33.80;67.70
12315;DHT22;23886;46.614;14.276;2022-07-23T12:02:24;33.10;69.80
12315;DHT22;23886;46.614;14.276;2022-07-23T12:04:53;33.00;73.20
12315;DHT22;23886;46.614;14.276;2022-07-23T12:07:29;32.80;70.50
12315;DHT22;23886;46.614;14.276;2022-07-23T12:09:57;32.90;71.40
12315;DHT22;23886;46.614;14.276;2022-07-23T12:12:25;32.80;70.80
12315;DHT22;23886;46.614;14.276;2022-07-23T12:14:54;32.50;71.80
12315;DHT22;23886;46.614;14.276;2022-07-23T12:17:27;32.30;72.90
12315;DHT22;23886;46.614;14.276;2022-07-23T12:19:57;32.50;75.40
12315;DHT22;23886;46.614;14.276;2022-07-23T12:22:26;32.50;75.00
12315;DHT22;23886;46.614;14.276;2022-07-23T12:25:01;32.40;72.40
12315;DHT22;23886;46.614;14.276;2022-07-23T12:27:30;32.40;74.10
12315;DHT22;23886;46.614;14.276;2022-07-23T12:29:57;32.70;73.90
12315;DHT22;23886;46.614;14.276;2022-07-23T12:32:26;32.70;71.70
12315;DHT22;23886;46.614;14.276;2022-07-23T12:35:04;32.90;72.20
12315;DHT22;23886;46.614;14.276;2022-07-23T12:37:34;33.90;71.80
12315;DHT22;23886;46.614;14.276;2022-07-23T12:40:22;34.30;72.00
12315;DHT22;23886;46.614;14.276;2022-07-23T12:42:52;33.90;71.10
12315;DHT22;23886;46.614;14.276;2022-07-23T12:45:20;33.50;72.30
12315;DHT22;23886;46.614;14.276;2022-07-23T12:47:58;33.60;71.70
12315;DHT22;23886;46.614;14.276;2022-07-23T12:50:42;34.60;70.80
12315;DHT22;23886;46.614;14.276;2022-07-23T12:53:12;35.30;67.90
12315;DHT22;23886;46.614;14.276;2022-07-23T12:55:40;34.00;67.60
12315;DHT22;23886;46.614;14.276;2022-07-23T12:58:13;34.20;71.00
12315;DHT22;23886;46.614;14.276;2022-07-23T13:01:02;34.30;69.30
12315;DHT22;23886;46.614;14.276;2022-07-23T13:03:32;35.30;68.20
12315;DHT22;23886;46.614;14.276;2022-07-23T13:06:02;36.20;67.60
12315;DHT22;23886;46.614;14.276;2022-07-23T13:08:31;36.80;65.70
12315;DHT22;23886;46.614;14.276;2022-07-23T13:10:58;37.20;62.10
12315;DHT22;23886;46.614;14.276;2022-07-23T13:13:27;37.20;63.40
12315;DHT22;23886;46.614;14.276;2022-07-23T13:15:55;36.30;63.60
12315;DHT22;23886;46.614;14.276;2022-07-23T13:18:24;36.10;65.30
12315;DHT22;23886;46.614;14.276;2022-07-23T13:20:51;36.50;63.70
12315;DHT22;23886;46.614;14.276;2022-07-23T13:23:20;37.10;64.90
12315;DHT22;23886;46.614;14.276;2022-07-23T13:25:48;37.50;63.20
12315;DHT22;23886;46.614;14.276;2022-07-23T13:28:16;37.50;64.50
12315;DHT22;23886;46.614;14.276;2022-07-23T13:30:44;38.00;61.50
12315;DHT22;23886;46.614;14.276;2022-07-23T13:33:12;38.10;62.10
12315;DHT22;23886;46.614;14.276;2022-07-23T13:35:39;38.80;60.60
12315;DHT22;23886;46.614;14.276;2022-07-23T13:38:06;39.40;60.00
12315;DHT22;23886;46.614;14.276;2022-07-23T13:40:36;39.50;59.40
12315;DHT22;23886;46.614;14.276;2022-07-23T13:43:05;39.90;59.10
12315;DHT22;23886;46.614;14.276;2022-07-23T13:45:34;39.90;59.30
12315;DHT22;23886;46.614;14.276;2022-07-23T13:48:02;40.00;57.30
12315;DHT22;23886;46.614;14.276;2022-07-23T13:50:29;40.80;57.50
12315;DHT22;23886;46.614;14.276;2022-07-23T13:52:56;40.50;56.30
12315;DHT22;23886;46.614;14.276;2022-07-23T13:55:23;39.70;56.50
12315;DHT22;23886;46.614;14.276;2022-07-23T13:57:51;40.10;53.60
12315;DHT22;23886;46.614;14.276;2022-07-23T14:00:18;40.00;54.60
12315;DHT22;23886;46.614;14.276;2022-07-23T14:02:45;39.70;55.20
12315;DHT22;23886;46.614;14.276;2022-07-23T14:05:13;39.60;54.50
12315;DHT22;23886;46.614;14.276;2022-07-23T14:07:40;39.70;55.60
12315;DHT22;23886;46.614;14.276;2022-07-23T14:10:08;40.40;54.30
12315;DHT22;23886;46.614;14.276;2022-07-23T14:12:36;40.90;53.80
12315;DHT22;23886;46.614;14.276;2022-07-23T14:15:05;41.10;55.40
12315;DHT22;23886;46.614;14.276;2022-07-23T14:17:34;41.10;53.40
12315;DHT22;23886;46.614;14.276;2022-07-23T14:20:01;39.90;54.30
12315;DHT22;23886;46.614;14.276;2022-07-23T14:22:28;40.50;54.30
12315;DHT22;23886;46.614;14.276;2022-07-23T14:24:55;41.20;53.80
12315;DHT22;23886;46.614;14.276;2022-07-23T14:27:24;41.50;54.10
12315;DHT22;23886;46.614;14.276;2022-07-23T14:29:51;42.10;53.50
12315;DHT22;23886;46.614;14.276;2022-07-23T14:32:20;42.40;53.10
12315;DHT22;23886;46.614;14.276;2022-07-23T14:34:47;42.10;52.50
12315;DHT22;23886;46.614;14.276;2022-07-23T14:37:14;41.50;52.50
12315;DHT22;23886;46.614;14.276;2022-07-23T14:39:42;41.40;52.80
12315;DHT22;23886;46.614;14.276;2022-07-23T14:42:10;41.10;54.00
12315;DHT22;23886;46.614;14.276;2022-07-23T14:44:38;41.00;54.50
12315;DHT22;23886;46.614;14.276;2022-07-23T14:47:05;41.20;54.30
12315;DHT22;23886;46.614;14.276;2022-07-23T14:49:34;41.10;54.30
12315;DHT22;23886;46.614;14.276;2022-07-23T14:52:02;42.00;52.50
12315;DHT22;23886;46.614;14.276;2022-07-23T14:54:29;42.80;51.10
12315;DHT22;23886;46.614;14.276;2022-07-23T14:56:58;42.30;50.80
12315;DHT22;23886;46.614;14.276;2022-07-23T14:59:26;42.30;52.70
12315;DHT22;23886;46.614;14.276;2022-07-23T15:01:53;43.60;50.20
12315;DHT22;23886;46.614;14.276;2022-07-23T15:04:21;43.40;48.60
12315;DHT22;23886;46.614;14.276;2022-07-23T15:06:49;42.60;50.30
12315;DHT22;23886;46.614;14.276;2022-07-23T15:09:16;41.40;53.10
12315;DHT22;23886;46.614;14.276;2022-07-23T15:11:43;42.10;50.00
12315;DHT22;23886;46.614;14.276;2022-07-23T15:14:11;42.00;50.70
12315;DHT22;23886;46.614;14.276;2022-07-23T15:16:38;42.30;50.70
12315;DHT22;23886;46.614;14.276;2022-07-23T15:19:05;43.00;50.40
12315;DHT22;23886;46.614;14.276;2022-07-23T15:21:32;43.70;49.80
12315;DHT22;23886;46.614;14.276;2022-07-23T15:24:00;44.10;50.20
12315;DHT22;23886;46.614;14.276;2022-07-23T15:26:28;43.40;48.90
12315;DHT22;23886;46.614;14.276;2022-07-23T15:28:56;43.20;48.30